Time;durP1;ratioP1;P1;durP2;ratioP2;P2;SDS_P1;SDS_P2;PMS_P1;PMS_P2;Temp;Humidity;BMP_temperature;BMP_pressure;BME280_temperature;BME280_humidity;BME280_pressure;Samples;Min_cycle;Max_cycle;Signal;HPM_P1;HPM_P2
2022/02/21 00:00:50;;;;;;;;;;;;;;;7.23;81.85;98619.36;1897341;74;20987;-72
2022/02/21 00:03:20;;;;;;;;;;;;;;;7.23;81.94;98601.30;1897330;75;20174;-72
2022/02/21 00:05:44;;;;;;;;;;;;;;;7.21;81.97;98598.03;1897012;75;20139;-73
2022/02/21 00:08:09;;;;;;;;;;;;;;;7.19;82.01;98598.22;1897459;74;20141;-72
2022/02/21 00:10:35;;;;;;;;;;;;;;;7.18;82.10;98591.27;1880666;75;20153;-72
2022/02/21 00:13:01;;;;;;;;;;;;;;;7.18;82.14;98583.31;1878343;75;21977;-72
2022/02/21 00:15:28;;;;;;;;;;;;;;;7.18;82.19;98579.87;1911478;75;20142;-72
2022/02/21 00:17:56;;;;;;;;;;;;;;;7.16;82.23;98550.89;1915474;74;20251;-72
2022/02/21 00:20:21;;;;;;;;;;;;;;;7.18;82.25;98568.73;1915527;75;20144;-72
2022/02/21 00:22:47;;;;;;;;;;;;;;;7.20;82.28;98578.66;1915285;75;20150;-72
2022/02/21 00:25:13;;;;;;;;;;;;;;;7.20;82.32;98552.15;1915466;75;20777;-72
2022/02/21 00:27:39;;;;;;;;;;;;;;;7.21;82.36;98540.54;1915420;75;20177;-72
2022/02/21 00:30:06;;;;;;;;;;;;;;;7.23;82.41;98539.83;1915436;75;20193;-72
2022/02/21 00:32:32;;;;;;;;;;;;;;;7.23;82.43;98528.40;1914728;74;20454;-72
2022/02/21 00:34:58;;;;;;;;;;;;;;;7.21;82.46;98526.46;1915539;74;20136;-72
2022/02/21 00:37:24;;;;;;;;;;;;;;;7.21;82.54;98519.33;1915141;75;21855;-72
2022/02/21 00:39:50;;;;;;;;;;;;;;;7.22;82.57;98519.62;1915091;75;20472;-72
2022/02/21 00:42:21;;;;;;;;;;;;;;;7.21;82.61;98508.73;1915283;75;20315;-72
2022/02/21 00:44:43;;;;;;;;;;;;;;;7.22;82.68;98519.62;1913766;75;20168;-72
2022/02/21 00:47:10;;;;;;;;;;;;;;;7.23;82.74;98515.97;1915497;75;20151;-72
2022/02/21 00:49:35;;;;;;;;;;;;;;;7.20;82.80;98503.11;1915401;75;20639;-72
2022/02/21 00:52:03;;;;;;;;;;;;;;;7.22;82.84;98494.94;1914869;74;20741;-72
2022/02/21 00:54:28;;;;;;;;;;;;;;;7.22;82.90;98487.81;1915131;75;20438;-72
2022/02/21 00:56:54;;;;;;;;;;;;;;;7.25;82.95;98475.48;1915372;75;20174;-72
2022/02/21 00:59:20;;;;;;;;;;;;;;;7.24;82.96;98473.88;1915472;75;20159;-72
2022/02/21 01:01:46;;;;;;;;;;;;;;;7.24;82.99;98453.98;1915240;75;21131;-72
2022/02/21 01:04:12;;;;;;;;;;;;;;;7.26;83.01;98450.62;1915332;75;20212;-72
2022/02/21 01:06:37;;;;;;;;;;;;;;;7.25;83.05;98437.05;1915478;74;20189;-72
2022/02/21 01:09:03;;;;;;;;;;;;;;;7.28;83.11;98437.97;1915348;75;20150;-72
2022/02/21 01:11:30;;;;;;;;;;;;;;;7.32;83.14;98439.22;1915305;75;20824;-72
2022/02/21 01:13:57;;;;;;;;;;;;;;;7.33;83.14;98407.72;1915475;75;21739;-73
2022/02/21 01:16:24;;;;;;;;;;;;;;;7.33;83.15;98409.05;1915296;75;20149;-72
2022/02/21 01:18:51;;;;;;;;;;;;;;;7.31;83.20;98395.19;1915319;75;20143;-72
2022/02/21 01:21:17;;;;;;;;;;;;;;;7.30;83.20;98386.91;1915365;75;20418;-72
2022/02/21 01:23:43;;;;;;;;;;;;;;;7.28;83.25;98363.73;1915243;75;20272;-72
2022/02/21 01:26:09;;;;;;;;;;;;;;;7.29;83.30;98386.59;1915484;74;21120;-72
2022/02/21 01:28:34;;;;;;;;;;;;;;;7.31;83.32;98377.13;1915327;75;20244;-72
2022/02/21 01:31:00;;;;;;;;;;;;;;;7.33;83.38;98360.00;1915296;75;20189;-72
2022/02/21 01:33:28;;;;;;;;;;;;;;;7.34;83.40;98366.95;1915290;74;20248;-72
2022/02/21 01:35:55;;;;;;;;;;;;;;;7.33;83.42;98360.00;1915241;75;20225;-72
2022/02/21 01:38:21;;;;;;;;;;;;;;;7.31;83.45;98347.46;1915366;75;21325;-72
2022/02/21 01:40:47;;;;;;;;;;;;;;;7.28;83.43;98343.86;1915204;75;20196;-72
2022/02/21 01:43:13;;;;;;;;;;;;;;;7.27;83.44;98338.27;1913806;74;20740;-72
2022/02/21 01:45:38;;;;;;;;;;;;;;;7.27;83.44;98321.54;1912148;75;20157;-72
2022/02/21 01:48:04;;;;;;;;;;;;;;;7.24;83.42;98329.39;1912257;75;20185;-72
2022/02/21 01:50:30;;;;;;;;;;;;;;;7.24;83.41;98317.47;1912421;75;21807;-72
2022/02/21 01:52:58;;;;;;;;;;;;;;;7.27;83.44;98312.27;1912103;75;20205;-72
2022/02/21 01:55:25;;;;;;;;;;;;;;;7.30;83.43;98300.75;1912405;74;20159;-72
2022/02/21 01:57:51;;;;;;;;;;;;;;;7.32;83.41;98311.95;1912435;75;20494;-72
2022/02/21 02:00:17;;;;;;;;;;;;;;;7.38;83.40;98293.13;1912597;75;20159;-72
2022/02/21 02:02:45;;;;;;;;;;;;;;;7.39;83.38;98288.92;1912317;74;21760;-72
2022/02/21 02:05:10;;;;;;;;;;;;;;;7.41;83.38;98284.76;1912719;74;20190;-72
2022/02/21 02:07:36;;;;;;;;;;;;;;;7.41;83.33;98284.25;1912266;75;20275;-72
2022/02/21 02:10:03;;;;;;;;;;;;;;;7.41;83.32;98271.00;1912507;74;20194;-72
2022/02/21 02:12:28;;;;;;;;;;;;;;;7.44;83.31;98261.81;1815379;78;20199;-72
2022/02/21 02:14:54;;;;;;;;;;;;;;;7.45;83.27;98243.06;1848430;77;21071;-72
2022/02/21 02:17:20;;;;;;;;;;;;;;;7.46;83.24;98236.72;1818300;79;20840;-72
2022/02/21 02:19:46;;;;;;;;;;;;;;;7.49;83.23;98238.95;1852330;77;20214;-72
2022/02/21 02:22:15;;;;;;;;;;;;;;;7.53;83.17;98218.97;1852403;77;20122;-72
2022/02/21 02:24:42;;;;;;;;;;;;;;;7.53;83.11;98217.64;1852263;77;20188;-72
2022/02/21 02:27:10;;;;;;;;;;;;;;;7.53;83.07;98212.34;1852535;77;21061;-72
2022/02/21 02:29:37;;;;;;;;;;;;;;;7.50;83.03;98206.12;1852247;77;20453;-72
2022/02/21 02:32:04;;;;;;;;;;;;;;;7.50;82.98;98201.33;1852298;77;20455;-72
2022/02/21 02:34:30;;;;;;;;;;;;;;;7.48;82.96;98182.98;1852363;77;20165;-72
2022/02/21 02:36:56;;;;;;;;;;;;;;;7.48;82.92;98171.05;1852419;77;20180;-72
2022/02/21 02:39:24;;;;;;;;;;;;;;;7.48;82.87;98171.05;1852433;77;21126;-72
2022/02/21 02:41:50;;;;;;;;;;;;;;;7.49;82.85;98146.67;1852179;77;20180;-72
2022/02/21 02:44:16;;;;;;;;;;;;;;;7.49;82.82;98138.19;1854631;77;20224;-72
2022/02/21 02:46:42;;;;;;;;;;;;;;;7.49;82.78;98131.55;1855098;77;20665;-72
2022/02/21 02:49:07;;;;;;;;;;;;;;;7.50;82.77;98134.52;1854838;76;20215;-72
2022/02/21 02:51:34;;;;;;;;;;;;;;;7.49;82.72;98130.23;1855082;77;21178;-72
2022/02/21 02:54:00;;;;;;;;;;;;;;;7.50;82.71;98119.12;1854787;76;37664;-72
2022/02/21 02:56:26;;;;;;;;;;;;;;;7.51;82.68;98113.62;1855036;77;20247;-72
2022/02/21 02:58:52;;;;;;;;;;;;;;;7.51;82.62;98105.66;1855300;77;20216;-72
2022/02/21 03:01:18;;;;;;;;;;;;;;;7.51;82.59;98092.41;1855414;76;20158;-72
2022/02/21 03:03:44;;;;;;;;;;;;;;;7.50;82.55;98100.05;1854761;77;21803;-72
2022/02/21 03:06:10;;;;;;;;;;;;;;;7.49;82.52;98093.11;1855013;77;20219;-71
2022/02/21 03:08:35;;;;;;;;;;;;;;;7.50;82.47;98094.74;1854939;76;20172;-72
2022/02/21 03:11:01;;;;;;;;;;;;;;;7.53;82.42;98073.11;1855076;77;20160;-72
2022/02/21 03:13:27;;;;;;;;;;;;;;;7.60;82.39;98093.52;1855164;77;20152;-72
2022/02/21 03:15:53;;;;;;;;;;;;;;;7.66;82.30;98067.48;1855092;77;21116;-72
2022/02/21 03:18:19;;;;;;;;;;;;;;;7.69;82.23;98092.27;1855297;76;20180;-72
2022/02/21 03:20:45;;;;;;;;;;;;;;;7.71;82.18;98088.37;1854821;77;20743;-72
2022/02/21 03:23:11;;;;;;;;;;;;;;;7.75;82.11;98073.67;1855040;76;20167;-72
2022/02/21 03:25:36;;;;;;;;;;;;;;;7.80;82.04;98075.70;1855076;76;20152;-72
2022/02/21 03:28:03;;;;;;;;;;;;;;;7.82;81.93;98055.07;1855208;77;21048;-72
2022/02/21 03:30:29;;;;;;;;;;;;;;;7.86;81.84;98069.55;1854917;77;20142;-72
2022/02/21 03:32:55;;;;;;;;;;;;;;;7.91;81.72;98063.12;1837478;77;20233;-72
2022/02/21 03:35:20;;;;;;;;;;;;;;;7.92;81.57;98047.48;1821760;78;20151;-72
2022/02/21 03:37:46;;;;;;;;;;;;;;;7.97;81.47;98035.22;1821623;78;20167;-72
2022/02/21 03:40:13;;;;;;;;;;;;;;;8.01;81.34;98040.92;1822036;77;21075;-71
2022/02/21 03:42:39;;;;;;;;;;;;;;;8.07;81.22;98048.03;1821029;78;20479;-72
2022/02/21 03:45:06;;;;;;;;;;;;;;;8.09;81.11;98035.37;1818983;79;20194;-72
2022/02/21 03:47:32;;;;;;;;;;;;;;;8.09;81.01;98035.89;1819213;79;20452;-72
2022/02/21 03:49:58;;;;;;;;;;;;;;;8.11;80.95;98046.59;1819176;78;20229;-72
2022/02/21 03:52:24;;;;;;;;;;;;;;;8.09;80.86;98026.59;1819051;78;21889;-72
2022/02/21 03:54:49;;;;;;;;;;;;;;;8.11;80.76;98022.70;1819208;78;20182;-71
2022/02/21 03:57:16;;;;;;;;;;;;;;;8.13;80.69;97980.81;1819434;79;20190;-72
2022/02/21 03:59:42;;;;;;;;;;;;;;;8.16;80.58;98037.48;1819009;78;20175;-71
2022/02/21 04:02:08;;;;;;;;;;;;;;;8.18;80.47;98010.71;1819285;79;20175;-71
2022/02/21 04:04:34;;;;;;;;;;;;;;;8.22;80.38;98003.95;1818853;79;20796;-71
2022/02/21 04:07:00;;;;;;;;;;;;;;;8.25;80.26;97987.08;1819041;78;20261;-71
2022/02/21 04:09:26;;;;;;;;;;;;;;;8.28;80.17;97998.63;1818814;78;20182;-71
2022/02/21 04:11:51;;;;;;;;;;;;;;;8.29;80.08;97995.46;1819202;79;20278;-71
2022/02/21 04:14:17;;;;;;;;;;;;;;;8.30;79.96;97975.31;1819225;79;20217;-71
2022/02/21 04:16:43;;;;;;;;;;;;;;;8.34;79.81;97979.69;1819015;79;21033;-71
2022/02/21 04:19:09;;;;;;;;;;;;;;;8.37;79.69;97976.08;1819292;78;20178;-71
2022/02/21 04:21:36;;;;;;;;;;;;;;;8.39;79.57;97974.55;1818913;79;20833;-71
2022/02/21 04:24:02;;;;;;;;;;;;;;;8.40;79.41;97961.08;1819096;78;20602;-71
2022/02/21 04:26:28;;;;;;;;;;;;;;;8.45;79.27;97953.25;1819164;79;20171;-71
2022/02/21 04:28:54;;;;;;;;;;;;;;;8.47;79.08;97926.49;1818872;79;22199;-71
2022/02/21 04:31:20;;;;;;;;;;;;;;;8.53;78.83;97946.36;1818901;79;20186;-71
2022/02/21 04:33:46;;;;;;;;;;;;;;;8.57;78.62;97948.58;1819170;79;20229;-71
2022/02/21 04:36:12;;;;;;;;;;;;;;;8.60;78.44;97949.47;1819189;78;20544;-71
2022/02/21 04:38:38;;;;;;;;;;;;;;;8.62;78.23;97958.84;1818432;78;20506;-71
2022/02/21 04:41:04;;;;;;;;;;;;;;;8.64;78.01;97938.20;1819219;79;21125;-71
2022/02/21 04:43:30;;;;;;;;;;;;;;;8.64;77.86;97932.88;1823118;78;20186;-71
2022/02/21 04:45:56;;;;;;;;;;;;;;;8.64;77.74;97932.06;1832383;78;20182;-70
2022/02/21 04:48:22;;;;;;;;;;;;;;;8.63;77.59;97927.77;1832446;78;20265;-71
2022/02/21 04:50:48;;;;;;;;;;;;;;;8.64;77.44;97926.75;1832422;78;20152;-71
2022/02/21 04:53:14;;;;;;;;;;;;;;;8.71;77.31;97914.22;1832513;77;21153;-71
2022/02/21 04:55:40;;;;;;;;;;;;;;;8.76;77.10;97919.16;1831806;78;20791;-71
2022/02/21 04:58:06;;;;;;;;;;;;;;;8.79;76.93;97927.23;1832484;77;20206;-71
2022/02/21 05:00:31;;;;;;;;;;;;;;;8.79;76.78;97921.92;1832444;78;20248;-71
2022/02/21 05:02:57;;;;;;;;;;;;;;;8.82;76.63;97928.94;1832403;78;20183;-71
2022/02/21 05:05:23;;;;;;;;;;;;;;;8.82;76.52;97924.13;1832424;78;20778;-71
2022/02/21 05:07:49;;;;;;;;;;;;;;;8.83;76.38;97937.19;1832351;78;20201;-70
2022/02/21 05:10:15;;;;;;;;;;;;;;;8.81;76.29;97951.73;1832162;78;20198;-71
2022/02/21 05:12:41;;;;;;;;;;;;;;;8.78;76.18;97960.14;1832490;78;20156;-71
2022/02/21 05:15:08;;;;;;;;;;;;;;;8.73;76.10;97958.64;1832574;78;20444;-71
2022/02/21 05:17:34;;;;;;;;;;;;;;;8.71;76.00;97969.50;1832159;78;21162;-70
2022/02/21 05:19:59;;;;;;;;;;;;;;;8.74;75.91;97964.27;1832196;78;20802;-71
2022/02/21 05:22:25;;;;;;;;;;;;;;;8.73;75.77;97954.66;1834975;78;20241;-70
2022/02/21 05:24:51;;;;;;;;;;;;;;;8.70;75.74;97965.72;1832560;78;20167;-71
2022/02/21 05:27:18;;;;;;;;;;;;;;;8.65;75.71;97965.58;1832552;78;20170;-70
2022/02/21 05:29:44;;;;;;;;;;;;;;;8.59;75.74;97978.38;1832210;78;21111;-70
2022/02/21 05:32:10;;;;;;;;;;;;;;;8.53;75.74;97974.25;1832402;78;20492;-71
2022/02/21 05:34:37;;;;;;;;;;;;;;;8.49;75.76;97979.69;1832356;78;20367;-71
2022/02/21 05:37:04;;;;;;;;;;;;;;;8.45;75.81;97996.27;1832247;77;20536;-71
2022/02/21 05:39:30;;;;;;;;;;;;;;;8.43;75.83;97993.02;1832096;78;20157;-70
2022/02/21 05:41:56;;;;;;;;;;;;;;;8.41;75.87;97992.41;1832282;78;21710;-70
2022/02/21 05:44:22;;;;;;;;;;;;;;;8.37;75.84;97986.70;1832042;78;20191;-71
2022/02/21 05:46:48;;;;;;;;;;;;;;;8.35;75.82;97992.77;1832385;77;20226;-71
2022/02/21 05:49:14;;;;;;;;;;;;;;;8.29;75.77;98005.58;1832336;78;20679;-71
2022/02/21 05:51:39;;;;;;;;;;;;;;;8.30;75.70;98021.78;1832313;78;20210;-71
2022/02/21 05:54:06;;;;;;;;;;;;;;;8.25;75.62;98001.69;1832609;78;21050;-71
2022/02/21 05:56:31;;;;;;;;;;;;;;;8.20;75.55;98010.00;1832340;78;20447;-71
2022/02/21 05:58:57;;;;;;;;;;;;;;;8.15;75.41;98001.34;1832432;78;20214;-71
2022/02/21 06:01:23;;;;;;;;;;;;;;;8.13;75.18;98008.69;1832489;78;20171;-71
2022/02/21 06:03:49;;;;;;;;;;;;;;;8.10;75.01;98011.77;1832265;77;20763;-71
2022/02/21 06:06:15;;;;;;;;;;;;;;;8.07;74.87;98012.20;1832287;77;21091;-71
2022/02/21 06:08:41;;;;;;;;;;;;;;;8.02;74.75;98018.67;1832413;78;20197;-71
2022/02/21 06:11:06;;;;;;;;;;;;;;;7.96;74.62;98022.97;1832349;78;20230;-76
2022/02/21 06:13:32;;;;;;;;;;;;;;;7.93;74.51;98037.17;1832132;78;20190;-72
2022/02/21 06:15:59;;;;;;;;;;;;;;;7.91;74.36;98056.48;1832486;78;20174;-72
2022/02/21 06:18:25;;;;;;;;;;;;;;;7.91;74.23;98040.56;1832329;77;21073;-72
2022/02/21 06:20:50;;;;;;;;;;;;;;;7.86;74.16;98050.98;1832433;78;20770;-72
2022/02/21 06:23:16;;;;;;;;;;;;;;;7.83;74.12;98038.14;1832316;78;20293;-72
2022/02/21 06:25:42;;;;;;;;;;;;;;;7.82;74.05;98037.83;1832304;78;20187;-72
2022/02/21 06:28:09;;;;;;;;;;;;;;;7.82;73.98;98028.54;1832769;78;20226;-72
2022/02/21 06:30:35;;;;;;;;;;;;;;;7.79;73.90;98052.84;1832144;78;21092;-71
2022/02/21 06:33:01;;;;;;;;;;;;;;;7.79;73.83;98067.44;1832391;77;20150;-72
2022/02/21 06:35:27;;;;;;;;;;;;;;;7.79;73.80;98097.94;1832155;77;20695;-71
2022/02/21 06:37:54;;;;;;;;;;;;;;;7.75;73.73;98093.56;1832494;77;20167;-71
2022/02/21 06:40:21;;;;;;;;;;;;;;;7.75;73.56;98076.83;1832477;77;20188;-71
2022/02/21 06:42:48;;;;;;;;;;;;;;;7.74;73.38;98099.09;1832432;78;21955;-71
2022/02/21 06:45:14;;;;;;;;;;;;;;;7.73;73.27;98110.22;1827643;77;20165;-72
2022/02/21 06:47:40;;;;;;;;;;;;;;;7.74;73.17;98105.73;1833508;77;20166;-71
2022/02/21 06:50:07;;;;;;;;;;;;;;;7.73;73.10;98110.72;1833081;77;20148;-72
2022/02/21 06:52:33;;;;;;;;;;;;;;;7.72;73.03;98091.84;1822216;77;20533;-72
2022/02/21 06:54:59;;;;;;;;;;;;;;;7.70;72.98;98096.55;1806349;79;21093;-72
2022/02/21 06:57:26;;;;;;;;;;;;;;;7.69;72.92;98097.56;1805838;78;20158;-72
2022/02/21 06:59:52;;;;;;;;;;;;;;;7.69;72.76;98114.30;1806086;79;20201;-72
2022/02/21 07:02:17;;;;;;;;;;;;;;;7.69;72.59;98124.91;1806219;79;20502;-72
2022/02/21 07:04:43;;;;;;;;;;;;;;;7.71;72.50;98128.67;1806232;79;20255;-72
2022/02/21 07:07:09;;;;;;;;;;;;;;;7.71;72.38;98127.34;1806104;79;21132;-72
2022/02/21 07:09:35;;;;;;;;;;;;;;;7.71;72.29;98132.65;1806080;79;20176;-72
2022/02/21 07:12:01;;;;;;;;;;;;;;;7.68;72.16;98139.19;1806593;79;20287;-72
2022/02/21 07:14:27;;;;;;;;;;;;;;;7.69;72.05;98141.34;1806373;79;20229;-72
2022/02/21 07:16:53;;;;;;;;;;;;;;;7.66;71.93;98153.19;1815233;78;20180;-71
2022/02/21 07:19:19;;;;;;;;;;;;;;;7.63;71.82;98146.97;1814389;78;21166;-72
2022/02/21 07:21:45;;;;;;;;;;;;;;;7.62;71.74;98161.75;1804702;79;20310;-71
2022/02/21 07:24:11;;;;;;;;;;;;;;;7.63;71.66;98167.37;1770752;81;20199;-72
2022/02/21 07:26:37;;;;;;;;;;;;;;;7.63;71.55;98179.30;1773733;78;20151;-72
2022/02/21 07:29:03;;;;;;;;;;;;;;;7.61;71.39;98180.00;1806788;77;20326;-72
2022/02/21 07:31:29;;;;;;;;;;;;;;;7.53;71.27;98181.84;1817714;77;20986;-72
2022/02/21 07:33:55;;;;;;;;;;;;;;;7.36;71.10;98199.19;1815040;77;20191;-72
2022/02/21 07:36:21;;;;;;;;;;;;;;;7.00;71.03;98226.58;1822196;77;20262;-72
2022/02/21 07:38:46;;;;;;;;;;;;;;;6.63;71.17;98250.89;1813561;77;20174;-72
2022/02/21 07:41:12;;;;;;;;;;;;;;;6.36;71.43;98242.84;1817494;77;20193;-72
2022/02/21 07:43:38;;;;;;;;;;;;;;;6.14;71.68;98258.48;1771707;77;21089;-71
2022/02/21 07:46:04;;;;;;;;;;;;;;;5.89;71.94;98278.45;1813044;77;20192;-71
2022/02/21 07:48:30;;;;;;;;;;;;;;;5.66;72.34;98314.84;1823332;77;20279;-71
2022/02/21 07:50:56;;;;;;;;;;;;;;;5.29;72.81;98317.22;1844810;75;20867;-72
2022/02/21 07:53:22;;;;;;;;;;;;;;;4.82;73.30;98342.80;1811025;78;20301;-72
2022/02/21 07:55:48;;;;;;;;;;;;;;;4.42;73.71;98336.98;1814127;77;21040;-72
2022/02/21 07:58:14;;;;;;;;;;;;;;;4.14;74.03;98329.35;1819350;78;20226;-72
2022/02/21 08:00:40;;;;;;;;;;;;;;;3.97;74.37;98335.78;1822292;78;20186;-71
2022/02/21 08:03:06;;;;;;;;;;;;;;;3.88;74.68;98330.24;1820273;77;20170;-72
2022/02/21 08:05:34;;;;;;;;;;;;;;;3.83;75.03;98322.06;1813883;78;20161;-72
2022/02/21 08:07:59;;;;;;;;;;;;;;;3.82;75.26;98312.52;1817423;77;20915;-72
2022/02/21 08:10:25;;;;;;;;;;;;;;;3.87;75.44;98307.54;1814697;78;20180;-71
2022/02/21 08:12:51;;;;;;;;;;;;;;;3.92;75.70;98328.89;1817826;77;20207;-71
2022/02/21 08:15:17;;;;;;;;;;;;;;;3.94;75.93;98322.96;1815391;77;20341;-71
2022/02/21 08:17:44;;;;;;;;;;;;;;;3.99;76.14;98316.63;1810952;78;20220;-71
2022/02/21 08:20:10;;;;;;;;;;;;;;;4.05;76.33;98307.20;1808610;77;21076;-71
2022/02/21 08:22:36;;;;;;;;;;;;;;;4.17;76.53;98339.54;1810368;77;20463;-71
2022/02/21 08:25:03;;;;;;;;;;;;;;;4.33;76.69;98332.77;1811830;78;20200;-72
2022/02/21 08:27:29;;;;;;;;;;;;;;;4.49;76.87;98326.02;1811844;78;20469;-70
2022/02/21 08:29:55;;;;;;;;;;;;;;;4.60;76.95;98319.95;1815575;77;20269;-70
2022/02/21 08:32:21;;;;;;;;;;;;;;;4.66;77.02;98336.38;1812058;78;21133;-71
2022/02/21 08:34:47;;;;;;;;;;;;;;;4.68;77.10;98352.34;1809540;77;20766;-70
2022/02/21 08:37:13;;;;;;;;;;;;;;;4.72;77.17;98352.80;1805608;78;20360;-71
2022/02/21 08:39:40;;;;;;;;;;;;;;;4.73;77.22;98346.52;1807944;78;20486;-72
2022/02/21 08:42:06;;;;;;;;;;;;;;;4.77;77.26;98354.40;1818397;77;20209;-71
2022/02/21 08:44:32;;;;;;;;;;;;;;;4.81;77.30;98372.84;1806588;77;21160;-71
2022/02/21 08:46:58;;;;;;;;;;;;;;;4.84;77.32;98373.29;1794244;77;20187;-71
2022/02/21 08:49:24;;;;;;;;;;;;;;;4.86;77.35;98373.91;1794724;77;20158;-71
2022/02/21 08:51:50;;;;;;;;;;;;;;;5.03;77.41;98358.18;1795470;77;20263;-71
2022/02/21 08:54:19;;;;;;;;;;;;;;;5.27;77.40;98357.06;1784668;78;20169;-71
2022/02/21 08:56:43;;;;;;;;;;;;;;;5.37;77.34;98353.61;1788809;78;21663;-71
2022/02/21 08:59:09;;;;;;;;;;;;;;;5.40;77.28;98322.83;1796184;77;20469;-71
2022/02/21 09:01:35;;;;;;;;;;;;;;;5.38;77.22;98337.25;1782388;78;20157;-71
2022/02/21 09:04:01;;;;;;;;;;;;;;;5.29;77.09;98361.64;1793504;78;20721;-71
2022/02/21 09:06:27;;;;;;;;;;;;;;;5.30;77.02;98376.50;1788441;78;20795;-72
2022/02/21 09:08:53;;;;;;;;;;;;;;;5.34;76.89;98391.48;1795933;78;21170;-71
2022/02/21 09:11:19;;;;;;;;;;;;;;;5.38;76.79;98392.23;1789885;77;20205;-71
2022/02/21 09:13:45;;;;;;;;;;;;;;;5.36;76.67;98396.89;1796502;78;20240;-71
2022/02/21 09:16:11;;;;;;;;;;;;;;;5.35;76.55;98410.28;1793548;77;20399;-71
2022/02/21 09:18:37;;;;;;;;;;;;;;;5.33;76.43;98426.34;1790289;78;20240;-72
2022/02/21 09:21:02;;;;;;;;;;;;;;;5.33;76.32;98436.91;1797075;78;21049;-71
2022/02/21 09:23:28;;;;;;;;;;;;;;;5.31;76.19;98423.57;1813537;77;20774;-72
2022/02/21 09:25:55;;;;;;;;;;;;;;;5.28;76.03;98429.20;1785865;79;20497;-71
2022/02/21 09:28:21;;;;;;;;;;;;;;;5.25;75.91;98443.61;1789799;79;20547;-72
2022/02/21 09:30:47;;;;;;;;;;;;;;;5.23;75.78;98444.30;1782889;79;20257;-71
2022/02/21 09:33:12;;;;;;;;;;;;;;;5.24;75.61;98440.64;1794786;79;21147;-71
2022/02/21 09:35:38;;;;;;;;;;;;;;;5.37;75.39;98448.75;1792208;79;20215;-71
2022/02/21 09:38:04;;;;;;;;;;;;;;;5.47;75.09;98443.99;1790142;79;20219;-71
2022/02/21 09:40:30;;;;;;;;;;;;;;;5.50;74.84;98438.33;1780270;78;20697;-71
2022/02/21 09:42:59;;;;;;;;;;;;;;;5.48;74.48;98470.75;1814558;77;20505;-72
2022/02/21 09:45:28;;;;;;;;;;;;;;;5.46;74.04;98467.45;1815737;77;21144;-71
2022/02/21 09:47:54;;;;;;;;;;;;;;;5.47;73.72;98475.72;1816871;77;20800;-70
2022/02/21 09:50:20;;;;;;;;;;;;;;;5.47;73.15;98474.39;1797236;78;20162;-70
2022/02/21 09:52:46;;;;;;;;;;;;;;;5.50;72.78;98480.62;1829507;76;20165;-71
2022/02/21 09:55:12;;;;;;;;;;;;;;;5.53;72.51;98485.55;1784298;78;20164;-70
2022/02/21 09:57:38;;;;;;;;;;;;;;;5.49;72.17;98481.63;1785337;78;21700;-70
2022/02/21 10:21:59;;;;;;;10.28;3.12;;;;;;;6.06;69.81;98523.20;1744202;79;22150;-71
2022/02/21 10:24:21;;;;;;;14.60;4.78;;;;;;;6.07;69.63;98513.45;1684421;83;21069;-71
2022/02/21 10:26:47;;;;;;;21.87;7.15;;;;;;;6.08;69.20;98513.27;1683929;84;21013;-71
2022/02/21 10:29:15;;;;;;;13.25;4.58;;;;;;;6.12;68.89;98529.09;1684144;85;21080;-71
2022/02/21 10:31:41;;;;;;;10.55;4.03;;;;;;;6.16;68.57;98525.05;1684154;85;21014;-71
2022/02/21 10:34:08;;;;;;;8.38;2.58;;;;;;;6.16;68.08;98522.92;1684154;85;21001;-71
2022/02/21 10:36:42;;;;;;;7.58;2.22;;;;;;;6.14;67.51;98532.36;1684299;85;21005;-71
2022/02/21 10:39:15;;;;;;;7.10;2.12;;;;;;;6.18;66.87;98520.90;1684111;85;21143;-70
2022/02/21 10:41:54;;;;;;;35.75;17.37;;;;;;;6.28;66.27;98514.29;1683888;85;21001;-71
2022/02/21 10:44:31;;;;;;;3.27;1.27;;;;;;;6.35;65.89;98519.64;1684320;85;21494;-71
2022/02/21 10:47:14;;;;;;;8.55;2.20;;;;;;;6.35;64.92;98531.05;1684074;85;21057;-71
2022/02/21 10:49:58;;;;;;;6.53;2.12;;;;;;;6.30;64.38;98528.14;1684047;85;21080;-71
2022/02/21 10:52:29;;;;;;;6.42;1.45;;;;;;;6.36;64.03;98531.88;1684158;85;21158;-71
2022/02/21 10:54:55;;;;;;;8.25;1.20;;;;;;;6.44;63.76;98537.85;1683708;84;21029;-71
2022/02/21 10:57:25;;;;;;;3.50;1.57;;;;;;;6.46;63.50;98535.85;1683365;85;21032;-71
2022/02/21 10:59:52;;;;;;;8.55;1.67;;;;;;;6.52;63.41;98543.03;1677369;84;21064;-71
2022/02/21 11:02:20;;;;;;;3.65;1.67;;;;;;;6.53;63.32;98536.73;1686522;84;21512;-71
2022/02/21 11:04:46;;;;;;;5.22;2.10;;;;;;;6.38;63.23;98539.11;1706706;84;21231;-71
2022/02/21 11:07:13;;;;;;;7.40;2.10;;;;;;;6.16;63.12;98549.39;1706677;84;21527;-71
2022/02/21 11:09:41;;;;;;;8.48;2.85;;;;;;;6.04;63.20;98551.70;1683372;84;21032;-71
2022/02/21 11:12:07;;;;;;;7.90;2.85;;;;;;;6.06;63.21;98562.08;1706192;82;21011;-71
2022/02/21 11:14:34;;;;;;;8.28;2.75;;;;;;;6.04;63.07;98568.89;1704499;84;21081;-71
2022/02/21 11:17:03;;;;;;;9.30;2.58;;;;;;;6.07;63.03;98577.78;1706216;84;21716;-71
2022/02/21 11:19:29;;;;;;;6.50;1.70;;;;;;;5.93;63.17;98588.71;1706839;83;21019;-71
2022/02/21 11:21:55;;;;;;;3.33;1.07;;;;;;;5.75;63.55;98589.55;1700756;83;21043;-71
2022/02/21 11:24:31;;;;;;;3.58;1.47;;;;;;;5.69;64.05;98594.77;1700264;82;21064;-71
2022/02/21 11:27:28;;;;;;;5.00;1.77;;;;;;;5.72;64.37;98597.04;1669503;84;21042;-71
2022/02/21 11:30:03;;;;;;;4.45;1.60;;;;;;;5.83;64.68;98596.58;1704564;83;21148;-71
2022/02/21 11:32:29;;;;;;;9.75;2.85;;;;;;;5.92;64.95;98604.75;1706382;84;21473;-71
2022/02/21 11:35:17;;;;;;;5.90;1.45;;;;;;;5.98;65.12;98600.07;1705220;84;21008;-71
2022/02/21 11:37:45;;;;;;;10.08;3.05;;;;;;;6.03;65.26;98610.90;1704115;84;21017;-71
2022/02/21 11:40:12;;;;;;;9.50;2.40;;;;;;;6.06;65.37;98601.77;1699518;84;21550;-71
2022/02/21 11:42:38;;;;;;;12.05;2.72;;;;;;;6.08;65.48;98605.89;1679734;84;21558;-71
2022/02/21 11:45:27;;;;;;;7.00;1.90;;;;;;;6.14;65.55;98596.38;1689203;84;21012;-71
2022/02/21 11:47:58;;;;;;;7.37;2.47;;;;;;;6.32;65.64;98600.77;1706269;84;21032;-71
2022/02/21 11:50:29;;;;;;;5.37;2.35;;;;;;;6.67;65.74;98617.12;1704039;84;21000;-72
2022/02/21 11:53:00;;;;;;;4.90;1.30;;;;;;;6.89;65.63;98599.41;1701670;82;21029;-71
2022/02/21 11:55:35;;;;;;;7.72;1.60;;;;;;;6.81;65.31;98592.91;1678167;84;21348;-71
2022/02/21 11:58:26;;;;;;;7.42;2.50;;;;;;;6.80;65.10;98594.73;1677919;84;21091;-71
2022/02/21 12:00:56;;;;;;;2.67;0.93;;;;;;;6.89;64.87;98608.68;1699427;84;21104;-71
2022/02/21 12:03:26;;;;;;;6.62;2.12;;;;;;;7.04;64.49;98593.00;1679755;84;21072;-71
2022/02/21 12:06:04;;;;;;;3.65;1.17;;;;;;;7.04;64.17;98616.02;1690629;84;21063;-71
2022/02/21 12:08:37;;;;;;;6.45;2.85;;;;;;;7.05;63.82;98615.02;1706126;84;21154;-72
2022/02/21 12:11:15;;;;;;;5.28;1.62;;;;;;;6.94;63.32;98614.21;1698126;84;21004;-72
2022/02/21 12:13:50;;;;;;;7.58;3.65;;;;;;;6.76;62.91;98619.95;1705355;84;21047;-71
2022/02/21 12:16:20;;;;;;;2.92;1.37;;;;;;;6.69;62.82;98616.92;1700445;84;21527;-72
2022/02/21 12:18:48;;;;;;;6.58;1.50;;;;;;;6.71;62.71;98638.76;1683273;84;21457;-71
2022/02/21 12:21:26;;;;;;;7.20;1.52;;;;;;;6.62;62.40;98629.28;1680208;84;21316;-71
2022/02/21 12:24:02;;;;;;;7.22;2.10;;;;;;;6.47;62.12;98648.67;1703491;84;21016;-71
2022/02/21 12:26:39;;;;;;;5.85;1.57;;;;;;;6.46;62.07;98648.38;1688294;84;21036;-71
2022/02/21 12:29:19;;;;;;;8.50;2.47;;;;;;;6.42;62.05;98648.93;1696169;83;20980;-71
2022/02/21 12:32:00;;;;;;;8.48;2.08;;;;;;;6.40;62.11;98651.75;1690606;83;21071;-71
2022/02/21 12:34:29;;;;;;;7.42;2.00;;;;;;;6.41;62.18;98654.73;1688322;84;21295;-71
2022/02/21 12:37:00;;;;;;;3.92;1.90;;;;;;;6.32;62.12;98661.15;1691891;83;21040;-71
2022/02/21 12:39:31;;;;;;;7.90;1.50;;;;;;;6.22;62.08;98650.53;1688509;84;21359;-71
2022/02/21 12:41:58;;;;;;;11.73;3.87;;;;;;;6.06;62.10;98670.06;1667768;85;21464;-71
2022/02/21 12:44:24;;;;;;;12.28;3.05;;;;;;;5.92;62.21;98690.73;1693640;84;21075;-71
2022/02/21 12:46:56;;;;;;;24.00;8.03;;;;;;;5.54;62.74;98738.35;1699033;84;21145;-71
2022/02/21 12:49:29;;;;;;;25.88;8.88;;;;;;;4.49;63.72;98749.61;1688467;84;21650;-71
2022/02/21 12:52:08;;;;;;;8.28;2.47;;;;;;;3.68;64.59;98706.84;1692351;84;21111;-71
2022/02/21 12:54:37;;;;;;;7.47;1.27;;;;;;;3.29;65.28;98715.11;1698272;83;21481;-71
2022/02/21 12:57:04;;;;;;;6.30;2.17;;;;;;;3.08;65.89;98710.34;1687324;83;21056;-71
2022/02/21 12:59:33;;;;;;;5.45;1.95;;;;;;;3.00;66.25;98716.91;1676285;84;21124;-71
2022/02/21 13:02:02;;;;;;;9.25;4.40;;;;;;;3.03;66.58;98711.31;1653417;85;21075;-71